sensor_id;sensor_type;location;lat;lon;timestamp;pressure;altitude;pressure_sealevel;temperature;humidity
13732;BME280;6937;56.096;12.664;2023-02-15T00:00:25;102856.25;;;3.90;100.00
13732;BME280;6937;56.096;12.664;2023-02-15T00:02:50;102854.53;;;3.88;100.00
13732;BME280;6937;56.096;12.664;2023-02-15T00:05:16;102853.69;;;3.83;100.00
13732;BME280;6937;56.096;12.664;2023-02-15T00:07:41;102856.28;;;3.87;100.00
13732;BME280;6937;56.096;12.664;2023-02-15T00:10:07;102855.47;;;3.82;100.00
13732;BME280;6937;56.096;12.664;2023-02-15T00:12:32;102845.72;;;3.87;100.00
13732;BME280;6937;56.096;12.664;2023-02-15T00:14:58;102852.78;;;3.87;100.00
13732;BME280;6937;56.096;12.664;2023-02-15T00:17:23;102843.09;;;3.84;100.00
13732;BME280;6937;56.096;12.664;2023-02-15T00:19:49;102851.94;;;3.85;100.00
13732;BME280;6937;56.096;12.664;2023-02-15T00:22:14;102839.53;;;3.87;100.00
13732;BME280;6937;56.096;12.664;2023-02-15T00:24:40;102831.56;;;3.90;100.00
13732;BME280;6937;56.096;12.664;2023-02-15T00:27:05;102840.38;;;3.94;100.00
13732;BME280;6937;56.096;12.664;2023-02-15T00:29:31;102835.03;;;3.95;100.00
13732;BME280;6937;56.096;12.664;2023-02-15T00:31:56;102828.06;;;3.88;100.00
13732;BME280;6937;56.096;12.664;2023-02-15T00:34:24;102823.72;;;3.85;100.00
13732;BME280;6937;56.096;12.664;2023-02-15T00:36:50;102835.13;;;3.87;100.00
13732;BME280;6937;56.096;12.664;2023-02-15T00:39:16;102836.91;;;3.87;100.00
13732;BME280;6937;56.096;12.664;2023-02-15T00:41:41;102818.38;;;3.87;100.00
13732;BME280;6937;56.096;12.664;2023-02-15T00:44:07;102823.66;;;3.87;100.00
13732;BME280;6937;56.096;12.664;2023-02-15T00:46:33;102835.16;;;3.86;100.00
13732;BME280;6937;56.096;12.664;2023-02-15T00:48:59;102827.19;;;3.89;100.00
13732;BME280;6937;56.096;12.664;2023-02-15T00:51:25;102820.97;;;3.90;100.00
13732;BME280;6937;56.096;12.664;2023-02-15T00:53:50;102816.56;;;3.94;100.00
13732;BME280;6937;56.096;12.664;2023-02-15T00:56:16;102816.53;;;3.97;100.00
13732;BME280;6937;56.096;12.664;2023-02-15T00:58:42;102812.91;;;4.02;100.00
13732;BME280;6937;56.096;12.664;2023-02-15T01:01:11;102805.84;;;4.01;100.00
13732;BME280;6937;56.096;12.664;2023-02-15T01:03:37;102798.88;;;3.96;100.00
13732;BME280;6937;56.096;12.664;2023-02-15T01:06:03;102798.94;;;3.93;100.00
13732;BME280;6937;56.096;12.664;2023-02-15T01:08:29;102796.19;;;3.99;100.00
13732;BME280;6937;56.096;12.664;2023-02-15T01:10:55;102800.56;;;4.01;100.00
13732;BME280;6937;56.096;12.664;2023-02-15T01:13:21;102800.66;;;3.97;100.00
13732;BME280;6937;56.096;12.664;2023-02-15T01:15:54;102792.75;;;3.92;100.00
13732;BME280;6937;56.096;12.664;2023-02-15T01:18:20;102793.69;;;3.89;100.00
13732;BME280;6937;56.096;12.664;2023-02-15T01:20:46;102795.50;;;3.83;100.00
13732;BME280;6937;56.096;12.664;2023-02-15T01:23:12;102792.09;;;3.73;100.00
13732;BME280;6937;56.096;12.664;2023-02-15T01:25:38;102793.13;;;3.62;100.00
13732;BME280;6937;56.096;12.664;2023-02-15T01:28:03;102791.41;;;3.58;100.00
13732;BME280;6937;56.096;12.664;2023-02-15T01:30:29;102783.56;;;3.50;100.00
13732;BME280;6937;56.096;12.664;2023-02-15T01:32:54;102785.28;;;3.56;100.00
13732;BME280;6937;56.096;12.664;2023-02-15T01:35:20;102780.88;;;3.55;100.00
13732;BME280;6937;56.096;12.664;2023-02-15T01:37:45;102772.97;;;3.52;100.00
13732;BME280;6937;56.096;12.664;2023-02-15T01:40:16;102766.84;;;3.45;100.00
13732;BME280;6937;56.096;12.664;2023-02-15T01:42:43;102766.06;;;3.40;100.00
13732;BME280;6937;56.096;12.664;2023-02-15T01:47:54;102768.66;;;3.45;100.00
13732;BME280;6937;56.096;12.664;2023-02-15T01:50:33;102771.28;;;3.45;100.00
13732;BME280;6937;56.096;12.664;2023-02-15T01:53:22;102768.69;;;3.40;100.00
13732;BME280;6937;56.096;12.664;2023-02-15T01:55:55;102765.22;;;3.35;100.00
13732;BME280;6937;56.096;12.664;2023-02-15T01:58:24;102758.16;;;3.35;100.00
13732;BME280;6937;56.096;12.664;2023-02-15T02:00:50;102760.84;;;3.32;100.00
13732;BME280;6937;56.096;12.664;2023-02-15T02:03:17;102763.53;;;3.29;100.00
13732;BME280;6937;56.096;12.664;2023-02-15T02:05:43;102759.97;;;3.32;100.00
13732;BME280;6937;56.096;12.664;2023-02-15T02:08:09;102758.16;;;3.35;100.00
13732;BME280;6937;56.096;12.664;2023-02-15T02:10:35;102753.75;;;3.36;100.00
13732;BME280;6937;56.096;12.664;2023-02-15T02:13:04;102749.34;;;3.36;100.00
13732;BME280;6937;56.096;12.664;2023-02-15T02:15:40;102749.34;;;3.36;100.00
13732;BME280;6937;56.096;12.664;2023-02-15T02:35:03;102720.16;;;3.46;100.00
13732;BME280;6937;56.096;12.664;2023-02-15T02:37:52;102718.34;;;3.49;100.00
13732;BME280;6937;56.096;12.664;2023-02-15T02:43:40;102714.84;;;3.49;100.00
13732;BME280;6937;56.096;12.664;2023-02-15T02:46:20;102709.56;;;3.47;100.00
13732;BME280;6937;56.096;12.664;2023-02-15T02:48:48;102709.56;;;3.49;100.00
13732;BME280;6937;56.096;12.664;2023-02-15T02:51:14;102698.97;;;3.50;100.00
13732;BME280;6937;56.096;12.664;2023-02-15T02:53:45;102701.63;;;3.49;100.00
13732;BME280;6937;56.096;12.664;2023-02-15T02:56:37;102708.69;;;3.48;100.00
13732;BME280;6937;56.096;12.664;2023-02-15T03:01:43;102698.97;;;3.50;100.00
13732;BME280;6937;56.096;12.664;2023-02-15T03:04:13;102695.38;;;3.54;100.00
13732;BME280;6937;56.096;12.664;2023-02-15T03:06:47;102686.56;;;3.55;100.00
13732;BME280;6937;56.096;12.664;2023-02-15T03:09:22;102683.06;;;3.53;100.00
13732;BME280;6937;56.096;12.664;2023-02-15T03:11:49;102674.25;;;3.54;100.00
13732;BME280;6937;56.096;12.664;2023-02-15T03:14:15;102676.84;;;3.57;100.00
13732;BME280;6937;56.096;12.664;2023-02-15T03:16:44;102672.47;;;3.53;100.00
13732;BME280;6937;56.096;12.664;2023-02-15T03:19:17;102669.84;;;3.55;100.00
13732;BME280;6937;56.096;12.664;2023-02-15T03:21:47;102668.84;;;3.62;100.00
13732;BME280;6937;56.096;12.664;2023-02-15T03:24:26;102672.34;;;3.64;100.00
13732;BME280;6937;56.096;12.664;2023-02-15T03:26:54;102663.50;;;3.65;100.00
13732;BME280;6937;56.096;12.664;2023-02-15T03:29:22;102659.06;;;3.70;100.00
13732;BME280;6937;56.096;12.664;2023-02-15T03:31:54;102658.28;;;3.63;100.00
13732;BME280;6937;56.096;12.664;2023-02-15T03:34:21;102650.44;;;3.56;100.00
13732;BME280;6937;56.096;12.664;2023-02-15T03:36:56;102653.03;;;3.57;100.00
13732;BME280;6937;56.096;12.664;2023-02-15T03:39:27;102655.75;;;3.53;100.00
13732;BME280;6937;56.096;12.664;2023-02-15T03:42:05;102654.91;;;3.51;100.00
13732;BME280;6937;56.096;12.664;2023-02-15T03:44:41;102652.25;;;3.51;100.00
13732;BME280;6937;56.096;12.664;2023-02-15T03:47:15;102659.25;;;3.55;100.00
13732;BME280;6937;56.096;12.664;2023-02-15T03:49:50;102650.44;;;3.56;100.00
13732;BME280;6937;56.096;12.664;2023-02-15T03:52:18;102640.72;;;3.56;100.00
13732;BME280;6937;56.096;12.664;2023-02-15T03:54:45;102637.22;;;3.54;100.00
13732;BME280;6937;56.096;12.664;2023-02-15T03:57:24;102638.94;;;3.58;100.00
13732;BME280;6937;56.096;12.664;2023-02-15T04:05:37;102644.03;;;3.72;100.00
13732;BME280;6937;56.096;12.664;2023-02-15T04:08:03;102634.28;;;3.77;100.00
13732;BME280;6937;56.096;12.664;2023-02-15T04:10:29;102640.34;;;3.83;100.00
13732;BME280;6937;56.096;12.664;2023-02-15T04:13:13;102643.69;;;3.95;100.00
13732;BME280;6937;56.096;12.664;2023-02-15T04:15:38;102641.81;;;4.04;100.00
13732;BME280;6937;56.096;12.664;2023-02-15T04:18:22;102627.53;;;4.13;100.00
13732;BME280;6937;56.096;12.664;2023-02-15T04:21:06;102632.81;;;4.14;100.00
13732;BME280;6937;56.096;12.664;2023-02-15T04:23:50;102631.03;;;4.15;100.00
13732;BME280;6937;56.096;12.664;2023-02-15T04:26:34;102625.72;;;4.16;100.00
13732;BME280;6937;56.096;12.664;2023-02-15T04:28:59;102627.41;;;4.20;100.00
13732;BME280;6937;56.096;12.664;2023-02-15T04:31:24;102622.16;;;4.17;100.00
13732;BME280;6937;56.096;12.664;2023-02-15T04:33:50;102613.34;;;4.17;100.00
13732;BME280;6937;56.096;12.664;2023-02-15T04:36:15;102617.69;;;4.22;100.00
13732;BME280;6937;56.096;12.664;2023-02-15T04:38:40;102611.50;;;4.23;100.00
13732;BME280;6937;56.096;12.664;2023-02-15T04:41:06;102611.38;;;4.29;100.00
13732;BME280;6937;56.096;12.664;2023-02-15T04:43:31;102607.81;;;4.32;100.00
13732;BME280;6937;56.096;12.664;2023-02-15T04:45:56;102608.63;;;4.37;100.00
13732;BME280;6937;56.096;12.664;2023-02-15T04:48:24;102608.56;;;4.40;100.00
13732;BME280;6937;56.096;12.664;2023-02-15T04:50:49;102605.03;;;4.41;100.00
13732;BME280;6937;56.096;12.664;2023-02-15T04:53:14;102603.25;;;4.42;100.00
13732;BME280;6937;56.096;12.664;2023-02-15T04:55:41;102598.84;;;4.42;100.00
13732;BME280;6937;56.096;12.664;2023-02-15T04:58:07;102589.09;;;4.43;100.00
13732;BME280;6937;56.096;12.664;2023-02-15T05:00:32;102597.88;;;4.46;100.00
13732;BME280;6937;56.096;12.664;2023-02-15T05:02:57;102603.06;;;4.51;100.00
13732;BME280;6937;56.096;12.664;2023-02-15T05:05:23;102603.06;;;4.51;100.00
13732;BME280;6937;56.096;12.664;2023-02-15T05:07:48;102596.00;;;4.51;100.00
13732;BME280;6937;56.096;12.664;2023-02-15T05:10:13;102600.34;;;4.54;100.00
13732;BME280;6937;56.096;12.664;2023-02-15T05:12:39;102587.16;;;4.52;100.00
13732;BME280;6937;56.096;12.664;2023-02-15T05:15:04;102583.63;;;4.53;100.00
13732;BME280;6937;56.096;12.664;2023-02-15T05:17:30;102588.88;;;4.55;100.00
13732;BME280;6937;56.096;12.664;2023-02-15T05:19:55;102584.44;;;4.57;100.00
13732;BME280;6937;56.096;12.664;2023-02-15T05:22:20;102591.59;;;4.52;100.00
13732;BME280;6937;56.096;12.664;2023-02-15T05:24:46;102588.94;;;4.52;100.00
13732;BME280;6937;56.096;12.664;2023-02-15T05:27:30;102589.00;;;4.47;100.00
13732;BME280;6937;56.096;12.664;2023-02-15T05:30:24;102583.69;;;4.49;100.00
13732;BME280;6937;56.096;12.664;2023-02-15T05:32:50;102588.94;;;4.52;100.00
13732;BME280;6937;56.096;12.664;2023-02-15T05:35:16;102582.69;;;4.56;100.00
13732;BME280;6937;56.096;12.664;2023-02-15T05:37:41;102583.50;;;4.58;100.00
13732;BME280;6937;56.096;12.664;2023-02-15T05:40:08;102578.19;;;4.61;100.00
13732;BME280;6937;56.096;12.664;2023-02-15T05:42:34;102587.84;;;4.62;100.00
13732;BME280;6937;56.096;12.664;2023-02-15T05:44:59;102582.56;;;4.62;100.00
13732;BME280;6937;56.096;12.664;2023-02-15T05:47:25;102584.38;;;4.60;100.00
13732;BME280;6937;56.096;12.664;2023-02-15T05:49:50;102585.25;;;4.60;100.00
13732;BME280;6937;56.096;12.664;2023-02-15T05:52:15;102576.38;;;4.61;100.00
13732;BME280;6937;56.096;12.664;2023-02-15T05:54:41;102578.13;;;4.64;100.00
13732;BME280;6937;56.096;12.664;2023-02-15T05:57:06;102572.75;;;4.68;100.00
13732;BME280;6937;56.096;12.664;2023-02-15T05:59:31;102576.22;;;4.70;100.00
13732;BME280;6937;56.096;12.664;2023-02-15T06:01:57;102570.91;;;4.72;100.00
13732;BME280;6937;56.096;12.664;2023-02-15T06:04:22;102571.75;;;4.72;100.00
13732;BME280;6937;56.096;12.664;2023-02-15T06:06:48;102557.66;;;4.72;100.00
13732;BME280;6937;56.096;12.664;2023-02-15T06:09:13;102557.66;;;4.72;100.00
13732;BME280;6937;56.096;12.664;2023-02-15T06:11:39;102555.91;;;4.71;100.00
13732;BME280;6937;56.096;12.664;2023-02-15T06:14:04;102555.03;;;4.72;100.00
13732;BME280;6937;56.096;12.664;2023-02-15T06:16:30;102562.97;;;4.70;100.00
13732;BME280;6937;56.096;12.664;2023-02-15T06:18:55;102560.34;;;4.69;100.00
13732;BME280;6937;56.096;12.664;2023-02-15T06:21:21;102556.81;;;4.70;100.00
13732;BME280;6937;56.096;12.664;2023-02-15T06:23:47;102551.72;;;4.61;100.00
13732;BME280;6937;56.096;12.664;2023-02-15T06:26:12;102547.31;;;4.58;100.00
13732;BME280;6937;56.096;12.664;2023-02-15T06:28:38;102538.50;;;4.58;100.00
13732;BME280;6937;56.096;12.664;2023-02-15T06:31:03;102542.16;;;4.51;100.00
13732;BME280;6937;56.096;12.664;2023-02-15T06:33:29;102540.53;;;4.45;100.00
13732;BME280;6937;56.096;12.664;2023-02-15T06:35:56;102537.13;;;4.38;100.00
13732;BME280;6937;56.096;12.664;2023-02-15T06:38:21;102538.84;;;4.41;100.00
13732;BME280;6937;56.096;12.664;2023-02-15T06:40:47;102544.06;;;4.46;100.00
13732;BME280;6937;56.096;12.664;2023-02-15T06:43:12;102531.69;;;4.46;100.00
13732;BME280;6937;56.096;12.664;2023-02-15T06:45:38;102538.56;;;4.55;100.00
13732;BME280;6937;56.096;12.664;2023-02-15T06:48:03;102542.94;;;4.57;100.00
13732;BME280;6937;56.096;12.664;2023-02-15T06:50:32;102539.34;;;4.60;100.00
13732;BME280;6937;56.096;12.664;2023-02-15T06:52:58;102542.88;;;4.60;100.00
13732;BME280;6937;56.096;12.664;2023-02-15T06:55:24;102539.28;;;4.63;100.00
13732;BME280;6937;56.096;12.664;2023-02-15T06:57:50;102534.88;;;4.63;100.00
13732;BME280;6937;56.096;12.664;2023-02-15T07:00:15;102533.09;;;4.64;100.00
13732;BME280;6937;56.096;12.664;2023-02-15T07:02:41;102541.06;;;4.64;100.00
13732;BME280;6937;56.096;12.664;2023-02-15T07:05:06;102538.41;;;4.64;100.00
13732;BME280;6937;56.096;12.664;2023-02-15T07:07:32;102531.38;;;4.61;100.00
13732;BME280;6937;56.096;12.664;2023-02-15T07:09:57;102534.06;;;4.60;100.00
13732;BME280;6937;56.096;12.664;2023-02-15T07:12:22;102537.59;;;4.59;100.00
13732;BME280;6937;56.096;12.664;2023-02-15T07:15:07;102539.34;;;4.60;100.00
13732;BME280;6937;56.096;12.664;2023-02-15T07:17:35;102541.16;;;4.58;100.00
13732;BME280;6937;56.096;12.664;2023-02-15T07:20:02;102539.38;;;4.58;100.00
13732;BME280;6937;56.096;12.664;2023-02-15T07:22:28;102542.06;;;4.57;100.00
13732;BME280;6937;56.096;12.664;2023-02-15T07:24:53;102541.25;;;4.53;100.00
13732;BME280;6937;56.096;12.664;2023-02-15T07:27:20;102536.94;;;4.48;100.00
13732;BME280;6937;56.096;12.664;2023-02-15T07:29:46;102528.13;;;4.47;100.00
13732;BME280;6937;56.096;12.664;2023-02-15T07:32:11;102528.84;;;4.57;100.00
13732;BME280;6937;56.096;12.664;2023-02-15T07:34:37;102532.22;;;4.63;100.00
13732;BME280;6937;56.096;12.664;2023-02-15T07:37:02;102528.63;;;4.66;100.00
13732;BME280;6937;56.096;12.664;2023-02-15T07:39:27;102528.56;;;4.69;100.00
13732;BME280;6937;56.096;12.664;2023-02-15T07:41:53;102533.03;;;4.68;100.00
13732;BME280;6937;56.096;12.664;2023-02-15T07:44:18;102534.75;;;4.69;100.00
13732;BME280;6937;56.096;12.664;2023-02-15T07:46:44;102532.94;;;4.71;100.00
13732;BME280;6937;56.096;12.664;2023-02-15T07:49:09;102527.72;;;4.68;100.00
13732;BME280;6937;56.096;12.664;2023-02-15T07:51:34;102532.06;;;4.71;100.00
13732;BME280;6937;56.096;12.664;2023-02-15T07:54:00;102528.53;;;4.72;100.00
13732;BME280;6937;56.096;12.664;2023-02-15T07:56:25;102523.19;;;4.73;100.00
13732;BME280;6937;56.096;12.664;2023-02-15T07:58:51;102524.06;;;4.74;100.00
13732;BME280;6937;56.096;12.664;2023-02-15T08:01:21;102516.06;;;4.77;100.00
13732;BME280;6937;56.096;12.664;2023-02-15T08:03:47;102524.84;;;4.79;100.00
13732;BME280;6937;56.096;12.664;2023-02-15T08:06:13;102529.22;;;4.81;100.00
13732;BME280;6937;56.096;12.664;2023-02-15T08:08:39;102522.13;;;4.82;100.00
13732;BME280;6937;56.096;12.664;2023-02-15T08:14:17;102524.03;;;4.75;100.00
13732;BME280;6937;56.096;12.664;2023-02-15T08:16:46;102531.06;;;4.76;100.00
13732;BME280;6937;56.096;12.664;2023-02-15T08:19:19;102533.72;;;4.76;100.00
13732;BME280;6937;56.096;12.664;2023-02-15T08:21:48;102524.03;;;4.75;100.00
13732;BME280;6937;56.096;12.664;2023-02-15T08:24:15;102515.19;;;4.76;100.00
13732;BME280;6937;56.096;12.664;2023-02-15T08:26:42;102529.28;;;4.77;100.00
13732;BME280;6937;56.096;12.664;2023-02-15T08:29:08;102514.28;;;4.77;100.00
13732;BME280;6937;56.096;12.664;2023-02-15T08:31:34;102514.28;;;4.77;100.00
13732;BME280;6937;56.096;12.664;2023-02-15T08:34:00;102515.22;;;4.75;100.00
13732;BME280;6937;56.096;12.664;2023-02-15T08:36:28;102514.28;;;4.77;100.00
13732;BME280;6937;56.096;12.664;2023-02-15T08:38:55;102501.09;;;4.74;100.00
13732;BME280;6937;56.096;12.664;2023-02-15T08:41:29;102501.78;;;4.84;100.00
13732;BME280;6937;56.096;12.664;2023-02-15T08:43:58;102504.41;;;4.84;100.00
13732;BME280;6937;56.096;12.664;2023-02-15T08:46:26;102499.13;;;4.84;100.00
13732;BME280;6937;56.096;12.664;2023-02-15T08:48:51;102503.59;;;4.82;100.00
13732;BME280;6937;56.096;12.664;2023-02-15T08:51:26;102489.53;;;4.78;100.00
13732;BME280;6937;56.096;12.664;2023-02-15T08:53:53;102487.78;;;4.77;100.00
13732;BME280;6937;56.096;12.664;2023-02-15T08:56:31;102495.75;;;4.77;100.00
13732;BME280;6937;56.096;12.664;2023-02-15T08:58:57;102489.56;;;4.77;100.00
13732;BME280;6937;56.096;12.664;2023-02-15T09:01:28;102485.13;;;4.77;100.00
13732;BME280;6937;56.096;12.664;2023-02-15T09:04:01;102478.16;;;4.73;100.00
13732;BME280;6937;56.096;12.664;2023-02-15T09:06:28;102484.31;;;4.75;100.00
13732;BME280;6937;56.096;12.664;2023-02-15T09:08:54;102481.66;;;4.75;100.00
13732;BME280;6937;56.096;12.664;2023-02-15T09:11:22;102476.41;;;4.72;100.00
13732;BME280;6937;56.096;12.664;2023-02-15T09:13:50;102484.31;;;4.75;100.00
13732;BME280;6937;56.096;12.664;2023-02-15T09:16:16;102477.28;;;4.74;100.00
13732;BME280;6937;56.096;12.664;2023-02-15T09:18:42;102472.84;;;4.75;100.00
13732;BME280;6937;56.096;12.664;2023-02-15T09:21:10;102469.31;;;4.76;100.00
13732;BME280;6937;56.096;12.664;2023-02-15T09:23:38;102474.59;;;4.76;100.00
13732;BME280;6937;56.096;12.664;2023-02-15T09:26:10;102452.47;;;4.77;100.00
13732;BME280;6937;56.096;12.664;2023-02-15T09:28:36;102463.06;;;4.77;100.00
13732;BME280;6937;56.096;12.664;2023-02-15T09:31:16;102457.78;;;4.77;100.00
13732;BME280;6937;56.096;12.664;2023-02-15T09:33:43;102461.34;;;4.76;100.00
13732;BME280;6937;56.096;12.664;2023-02-15T09:38:44;102454.31;;;4.73;100.00
13732;BME280;6937;56.096;12.664;2023-02-15T09:41:26;102450.72;;;4.77;100.00
13732;BME280;6937;56.096;12.664;2023-02-15T09:47:01;102457.81;;;4.75;100.00
13732;BME280;6937;56.096;12.664;2023-02-15T09:55:16;102456.72;;;4.85;100.00
13732;BME280;6937;56.096;12.664;2023-02-15T10:01:19;102450.44;;;4.91;100.00
13732;BME280;6937;56.096;12.664;2023-02-15T10:09:54;102426.34;;;5.02;100.00
13732;BME280;6937;56.096;12.664;2023-02-15T10:15:23;102418.34;;;5.03;100.00
13732;BME280;6937;56.096;12.664;2023-02-15T10:26:22;102424.69;;;4.96;100.00
13732;BME280;6937;56.096;12.664;2023-02-15T10:29:12;102422.81;;;5.01;100.00
13732;BME280;6937;56.096;12.664;2023-02-15T10:31:51;102428.00;;;5.06;100.00
13732;BME280;6937;56.096;12.664;2023-02-15T10:34:39;102423.56;;;5.06;100.00
13732;BME280;6937;56.096;12.664;2023-02-15T10:37:46;102436.88;;;5.05;100.00
13732;BME280;6937;56.096;12.664;2023-02-15T10:40:25;102427.06;;;5.08;100.00
13732;BME280;6937;56.096;12.664;2023-02-15T10:45:26;102429.63;;;5.13;100.00
13732;BME280;6937;56.096;12.664;2023-02-15T10:48:21;102426.09;;;5.12;100.00
13732;BME280;6937;56.096;12.664;2023-02-15T10:50:51;102421.59;;;5.16;100.00
13732;BME280;6937;56.096;12.664;2023-02-15T10:53:39;102413.66;;;5.14;100.00
13732;BME280;6937;56.096;12.664;2023-02-15T10:56:22;102420.78;;;5.12;100.00
13732;BME280;6937;56.096;12.664;2023-02-15T11:01:41;102414.53;;;5.15;100.00
13732;BME280;6937;56.096;12.664;2023-02-15T11:06:56;102404.81;;;5.14;100.00
13732;BME280;6937;56.096;12.664;2023-02-15T11:09:25;102407.34;;;5.20;100.00
13732;BME280;6937;56.096;12.664;2023-02-15T11:11:56;102401.25;;;5.16;100.00
13732;BME280;6937;56.096;12.664;2023-02-15T11:17:09;102401.34;;;5.12;100.00
13732;BME280;6937;56.096;12.664;2023-02-15T11:19:53;102393.50;;;5.09;100.00
13732;BME280;6937;56.096;12.664;2023-02-15T11:22:20;102393.50;;;5.07;100.00
13732;BME280;6937;56.096;12.664;2023-02-15T11:24:46;102384.66;;;5.08;100.00
13732;BME280;6937;56.096;12.664;2023-02-15T11:29:41;102373.22;;;5.06;100.00
13732;BME280;6937;56.096;12.664;2023-02-15T11:32:21;102380.31;;;5.06;100.00
13732;BME280;6937;56.096;12.664;2023-02-15T11:37:21;102374.13;;;5.05;100.00
13732;BME280;6937;56.096;12.664;2023-02-15T11:39:50;102365.25;;;5.08;100.00
13732;BME280;6937;56.096;12.664;2023-02-15T11:42:21;102353.66;;;5.12;100.00
13732;BME280;6937;56.096;12.664;2023-02-15T11:47:19;102353.63;;;5.13;100.00
13732;BME280;6937;56.096;12.664;2023-02-15T11:49:45;102354.44;;;5.15;100.00
13732;BME280;6937;56.096;12.664;2023-02-15T11:52:13;102349.13;;;5.17;100.00
13732;BME280;6937;56.096;12.664;2023-02-15T11:54:42;102342.03;;;5.17;100.00
13732;BME280;6937;56.096;12.664;2023-02-15T11:57:14;102341.13;;;5.18;100.00
13732;BME280;6937;56.096;12.664;2023-02-15T11:59:46;102324.31;;;5.19;100.00
13732;BME280;6937;56.096;12.664;2023-02-15T12:02:20;102321.63;;;5.21;100.00
13732;BME280;6937;56.096;12.664;2023-02-15T12:04:56;102317.16;;;5.23;100.00
13732;BME280;6937;56.096;12.664;2023-02-15T12:07:57;102312.75;;;5.22;100.00
13732;BME280;6937;56.096;12.664;2023-02-15T12:10:33;102311.09;;;5.18;100.00
13732;BME280;6937;56.096;12.664;2023-02-15T12:13:15;102297.97;;;5.13;100.00
13732;BME280;6937;56.096;12.664;2023-02-15T12:15:44;102303.38;;;5.09;100.00
13732;BME280;6937;56.096;12.664;2023-02-15T12:18:40;102302.72;;;4.99;100.00
13732;BME280;6937;56.096;12.664;2023-02-15T12:21:15;102297.59;;;4.93;100.00
13732;BME280;6937;56.096;12.664;2023-02-15T12:23:54;102295.13;;;4.85;100.00
13732;BME280;6937;56.096;12.664;2023-02-15T12:26:31;102290.00;;;4.78;100.00
13732;BME280;6937;56.096;12.664;2023-02-15T12:29:15;102286.59;;;4.73;100.00
13732;BME280;6937;56.096;12.664;2023-02-15T12:31:46;102285.81;;;4.69;100.00
13732;BME280;6937;56.096;12.664;2023-02-15T12:34:26;102278.78;;;4.68;100.00
13732;BME280;6937;56.096;12.664;2023-02-15T12:36:57;102285.88;;;4.66;100.00
13732;BME280;6937;56.096;12.664;2023-02-15T12:39:27;102284.13;;;4.65;100.00
13732;BME280;6937;56.096;12.664;2023-02-15T12:44:26;102284.22;;;4.62;100.00
13732;BME280;6937;56.096;12.664;2023-02-15T12:46:58;102280.59;;;4.66;100.00
13732;BME280;6937;56.096;12.664;2023-02-15T12:49:24;102276.19;;;4.65;100.00
13732;BME280;6937;56.096;12.664;2023-02-15T12:56:47;102274.03;;;4.81;100.00
13732;BME280;6937;56.096;12.664;2023-02-15T12:59:13;102258.94;;;4.84;100.00
13732;BME280;6937;56.096;12.664;2023-02-15T13:01:41;102267.75;;;4.86;100.00
13732;BME280;6937;56.096;12.664;2023-02-15T13:04:20;102263.06;;;4.96;100.00
13732;BME280;6937;56.096;12.664;2023-02-15T13:06:49;102259.41;;;5.02;100.00
13732;BME280;6937;56.096;12.664;2023-02-15T13:09:20;102262.97;;;5.01;100.00
13732;BME280;6937;56.096;12.664;2023-02-15T13:11:46;102266.44;;;5.03;100.00
13732;BME280;6937;56.096;12.664;2023-02-15T13:14:20;102256.75;;;5.02;100.00
13732;BME280;6937;56.096;12.664;2023-02-15T13:16:49;102248.03;;;4.98;100.00
13732;BME280;6937;56.096;12.664;2023-02-15T13:21:54;102233.25;;;4.88;100.00
13732;BME280;6937;56.096;12.664;2023-02-15T13:24:26;102240.09;;;4.97;100.00
13732;BME280;6937;56.096;12.664;2023-02-15T13:26:55;102242.66;;;5.00;100.00
13732;BME280;6937;56.096;12.664;2023-02-15T13:29:25;102240.97;;;4.97;100.00
13732;BME280;6937;56.096;12.664;2023-02-15T13:31:52;102244.38;;;5.02;100.00
13732;BME280;6937;56.096;12.664;2023-02-15T13:34:38;102237.47;;;4.95;100.00
13732;BME280;6937;56.096;12.664;2023-02-15T13:42:56;102216.94;;;5.05;100.00
13732;BME280;6937;56.096;12.664;2023-02-15T13:51:16;102212.63;;;4.99;100.00
13732;BME280;6937;56.096;12.664;2023-02-15T13:57:05;102204.88;;;4.93;100.00
13732;BME280;6937;56.096;12.664;2023-02-15T14:09:19;102223.53;;;4.88;100.00
13732;BME280;6937;56.096;12.664;2023-02-15T14:11:47;102211.34;;;4.81;100.00
13732;BME280;6937;56.096;12.664;2023-02-15T14:17:33;102201.81;;;4.74;100.00
13732;BME280;6937;56.096;12.664;2023-02-15T14:20:38;102194.78;;;4.73;100.00
13732;BME280;6937;56.096;12.664;2023-02-15T14:23:34;102198.38;;;4.71;100.00
13732;BME280;6937;56.096;12.664;2023-02-15T14:26:16;102193.84;;;4.76;100.00
13732;BME280;6937;56.096;12.664;2023-02-15T14:28:52;102192.09;;;4.75;100.00
13732;BME280;6937;56.096;12.664;2023-02-15T14:31:28;102195.53;;;4.78;100.00
13732;BME280;6937;56.096;12.664;2023-02-15T14:33:56;102193.72;;;4.80;100.00
13732;BME280;6937;56.096;12.664;2023-02-15T14:36:23;102190.25;;;4.78;100.00
13732;BME280;6937;56.096;12.664;2023-02-15T14:42:04;102183.59;;;4.62;100.00
13732;BME280;6937;56.096;12.664;2023-02-15T14:44:42;102185.88;;;4.42;100.00
13732;BME280;6937;56.096;12.664;2023-02-15T14:47:17;102177.34;;;4.29;100.00
13732;BME280;6937;56.096;12.664;2023-02-15T14:49:43;102183.47;;;4.31;100.00
13732;BME280;6937;56.096;12.664;2023-02-15T14:52:10;102178.28;;;4.27;100.00
13732;BME280;6937;56.096;12.664;2023-02-15T15:04:35;102195.66;;;4.38;100.00
13732;BME280;6937;56.096;12.664;2023-02-15T15:07:20;102191.38;;;4.33;100.00
13732;BME280;6937;56.096;12.664;2023-02-15T15:10:04;102192.44;;;4.26;100.00
13732;BME280;6937;56.096;12.664;2023-02-15T15:12:40;102202.84;;;4.33;100.00
13732;BME280;6937;56.096;12.664;2023-02-15T15:15:09;102194.78;;;4.38;100.00
13732;BME280;6937;56.096;12.664;2023-02-15T15:20:04;102198.97;;;4.47;100.00
13732;BME280;6937;56.096;12.664;2023-02-15T15:22:33;102189.44;;;4.39;100.00